sensor_id;sensor_type;location;lat;lon;timestamp;temperature;humidity
37268;DHT22;23154;52.542;13.362;2023-02-18T00:01:53;6.70;99.90
37268;DHT22;23154;52.542;13.362;2023-02-18T00:04:18;6.70;99.90
37268;DHT22;23154;52.542;13.362;2023-02-18T00:06:44;6.70;99.90
37268;DHT22;23154;52.542;13.362;2023-02-18T00:09:10;6.70;99.90
37268;DHT22;23154;52.542;13.362;2023-02-18T00:11:36;6.70;99.90
37268;DHT22;23154;52.542;13.362;2023-02-18T00:14:02;6.70;99.90
37268;DHT22;23154;52.542;13.362;2023-02-18T00:16:28;6.70;99.90
37268;DHT22;23154;52.542;13.362;2023-02-18T00:18:57;6.70;99.90
37268;DHT22;23154;52.542;13.362;2023-02-18T00:21:23;6.60;99.90
37268;DHT22;23154;52.542;13.362;2023-02-18T00:23:49;6.60;99.90
37268;DHT22;23154;52.542;13.362;2023-02-18T00:26:15;6.60;99.90
37268;DHT22;23154;52.542;13.362;2023-02-18T00:28:41;6.50;99.90
37268;DHT22;23154;52.542;13.362;2023-02-18T00:33:32;6.50;99.90
37268;DHT22;23154;52.542;13.362;2023-02-18T00:36:02;6.50;99.90
37268;DHT22;23154;52.542;13.362;2023-02-18T00:38:28;6.50;99.90
37268;DHT22;23154;52.542;13.362;2023-02-18T00:40:53;6.40;99.90
37268;DHT22;23154;52.542;13.362;2023-02-18T00:43:19;6.40;99.90
37268;DHT22;23154;52.542;13.362;2023-02-18T00:45:44;6.30;99.90
37268;DHT22;23154;52.542;13.362;2023-02-18T00:48:10;6.30;99.90
37268;DHT22;23154;52.542;13.362;2023-02-18T00:50:35;6.20;99.90
37268;DHT22;23154;52.542;13.362;2023-02-18T00:53:01;6.20;99.90
37268;DHT22;23154;52.542;13.362;2023-02-18T00:55:26;6.20;99.90
37268;DHT22;23154;52.542;13.362;2023-02-18T00:57:52;6.20;99.90
37268;DHT22;23154;52.542;13.362;2023-02-18T01:00:17;6.10;99.90
37268;DHT22;23154;52.542;13.362;2023-02-18T01:02:43;6.10;99.90
37268;DHT22;23154;52.542;13.362;2023-02-18T01:05:08;6.00;99.90
37268;DHT22;23154;52.542;13.362;2023-02-18T01:07:34;6.10;99.90
37268;DHT22;23154;52.542;13.362;2023-02-18T01:09:59;6.00;99.90
37268;DHT22;23154;52.542;13.362;2023-02-18T01:12:25;6.00;99.90
37268;DHT22;23154;52.542;13.362;2023-02-18T01:14:50;6.10;99.90
37268;DHT22;23154;52.542;13.362;2023-02-18T01:17:16;6.00;99.90
37268;DHT22;23154;52.542;13.362;2023-02-18T01:19:41;6.00;99.90
37268;DHT22;23154;52.542;13.362;2023-02-18T01:22:07;6.00;99.90
37268;DHT22;23154;52.542;13.362;2023-02-18T01:24:33;6.00;99.90
37268;DHT22;23154;52.542;13.362;2023-02-18T01:26:58;6.00;99.90
37268;DHT22;23154;52.542;13.362;2023-02-18T01:29:24;6.00;99.90
37268;DHT22;23154;52.542;13.362;2023-02-18T01:31:49;5.90;99.90
37268;DHT22;23154;52.542;13.362;2023-02-18T01:34:15;6.00;99.90
37268;DHT22;23154;52.542;13.362;2023-02-18T01:36:40;6.00;99.90
37268;DHT22;23154;52.542;13.362;2023-02-18T01:39:06;6.00;99.90
37268;DHT22;23154;52.542;13.362;2023-02-18T01:41:31;6.10;99.90
37268;DHT22;23154;52.542;13.362;2023-02-18T01:44:11;6.00;99.90
37268;DHT22;23154;52.542;13.362;2023-02-18T01:46:36;6.00;99.90
37268;DHT22;23154;52.542;13.362;2023-02-18T01:49:02;6.00;99.90
37268;DHT22;23154;52.542;13.362;2023-02-18T01:51:29;6.00;99.90
37268;DHT22;23154;52.542;13.362;2023-02-18T01:56:30;6.00;99.90
37268;DHT22;23154;52.542;13.362;2023-02-18T01:58:57;6.00;99.90
37268;DHT22;23154;52.542;13.362;2023-02-18T02:01:25;6.00;99.90
37268;DHT22;23154;52.542;13.362;2023-02-18T02:03:51;5.90;99.90
37268;DHT22;23154;52.542;13.362;2023-02-18T02:06:18;5.90;99.90
37268;DHT22;23154;52.542;13.362;2023-02-18T02:08:43;5.90;99.90
37268;DHT22;23154;52.542;13.362;2023-02-18T02:16:37;5.90;99.90
37268;DHT22;23154;52.542;13.362;2023-02-18T02:21:41;5.90;99.90
37268;DHT22;23154;52.542;13.362;2023-02-18T02:37:25;5.80;99.90
37268;DHT22;23154;52.542;13.362;2023-02-18T02:39:55;5.80;99.90
37268;DHT22;23154;52.542;13.362;2023-02-18T02:44:53;5.90;99.90
37268;DHT22;23154;52.542;13.362;2023-02-18T02:47:22;5.90;99.90
37268;DHT22;23154;52.542;13.362;2023-02-18T02:52:21;5.80;99.90
37268;DHT22;23154;52.542;13.362;2023-02-18T02:54:48;5.80;99.90
37268;DHT22;23154;52.542;13.362;2023-02-18T02:59:43;5.80;99.90
37268;DHT22;23154;52.542;13.362;2023-02-18T03:12:18;5.70;99.90
37268;DHT22;23154;52.542;13.362;2023-02-18T03:14:53;5.70;99.90
37268;DHT22;23154;52.542;13.362;2023-02-18T03:17:22;5.80;99.90
37268;DHT22;23154;52.542;13.362;2023-02-18T03:19:50;5.70;99.90
37268;DHT22;23154;52.542;13.362;2023-02-18T03:22:37;5.70;99.90
37268;DHT22;23154;52.542;13.362;2023-02-18T03:25:03;5.60;99.90
37268;DHT22;23154;52.542;13.362;2023-02-18T03:27:34;5.60;99.90
37268;DHT22;23154;52.542;13.362;2023-02-18T03:30:19;5.60;99.90
37268;DHT22;23154;52.542;13.362;2023-02-18T03:32:46;5.70;99.90
37268;DHT22;23154;52.542;13.362;2023-02-18T03:35:16;5.70;99.90
37268;DHT22;23154;52.542;13.362;2023-02-18T03:37:53;5.80;99.90
37268;DHT22;23154;52.542;13.362;2023-02-18T03:40:26;5.80;99.90
37268;DHT22;23154;52.542;13.362;2023-02-18T03:42:51;5.80;99.90
37268;DHT22;23154;52.542;13.362;2023-02-18T03:45:17;5.90;99.90
37268;DHT22;23154;52.542;13.362;2023-02-18T03:47:42;5.80;99.90
37268;DHT22;23154;52.542;13.362;2023-02-18T03:50:08;5.80;99.90
37268;DHT22;23154;52.542;13.362;2023-02-18T03:52:34;5.80;99.90
37268;DHT22;23154;52.542;13.362;2023-02-18T03:55:02;5.80;99.90
37268;DHT22;23154;52.542;13.362;2023-02-18T03:57:28;5.70;99.90
37268;DHT22;23154;52.542;13.362;2023-02-18T03:59:53;5.70;99.90
37268;DHT22;23154;52.542;13.362;2023-02-18T04:02:19;5.70;99.90
37268;DHT22;23154;52.542;13.362;2023-02-18T04:04:44;5.70;99.90
37268;DHT22;23154;52.542;13.362;2023-02-18T04:07:10;5.70;99.90
37268;DHT22;23154;52.542;13.362;2023-02-18T04:09:35;5.70;99.90
37268;DHT22;23154;52.542;13.362;2023-02-18T04:12:01;5.70;99.90
37268;DHT22;23154;52.542;13.362;2023-02-18T04:14:26;5.70;99.90
37268;DHT22;23154;52.542;13.362;2023-02-18T04:16:52;5.60;99.90
37268;DHT22;23154;52.542;13.362;2023-02-18T04:19:17;5.60;99.90
37268;DHT22;23154;52.542;13.362;2023-02-18T04:21:43;5.60;99.90
37268;DHT22;23154;52.542;13.362;2023-02-18T04:24:08;5.60;99.90
37268;DHT22;23154;52.542;13.362;2023-02-18T04:26:34;5.60;99.90
37268;DHT22;23154;52.542;13.362;2023-02-18T04:28:59;5.70;99.90
37268;DHT22;23154;52.542;13.362;2023-02-18T04:31:25;5.60;99.90
37268;DHT22;23154;52.542;13.362;2023-02-18T04:33:50;5.60;99.90
37268;DHT22;23154;52.542;13.362;2023-02-18T04:36:16;5.60;99.90
37268;DHT22;23154;52.542;13.362;2023-02-18T04:38:41;5.50;99.90
37268;DHT22;23154;52.542;13.362;2023-02-18T04:41:07;5.50;99.90
37268;DHT22;23154;52.542;13.362;2023-02-18T04:43:33;5.50;99.90
37268;DHT22;23154;52.542;13.362;2023-02-18T04:45:58;5.40;99.90
37268;DHT22;23154;52.542;13.362;2023-02-18T04:48:24;5.50;99.90
37268;DHT22;23154;52.542;13.362;2023-02-18T04:50:49;5.50;99.90
37268;DHT22;23154;52.542;13.362;2023-02-18T04:53:15;5.50;99.90
37268;DHT22;23154;52.542;13.362;2023-02-18T04:55:40;5.50;99.90
37268;DHT22;23154;52.542;13.362;2023-02-18T04:58:06;5.50;99.90
37268;DHT22;23154;52.542;13.362;2023-02-18T05:00:31;5.40;99.90
37268;DHT22;23154;52.542;13.362;2023-02-18T05:02:57;5.40;99.90
37268;DHT22;23154;52.542;13.362;2023-02-18T05:05:22;5.50;99.90
37268;DHT22;23154;52.542;13.362;2023-02-18T05:07:48;5.40;99.90
37268;DHT22;23154;52.542;13.362;2023-02-18T05:10:14;5.40;99.90
37268;DHT22;23154;52.542;13.362;2023-02-18T05:12:40;5.40;99.90
37268;DHT22;23154;52.542;13.362;2023-02-18T05:15:06;5.30;99.90
37268;DHT22;23154;52.542;13.362;2023-02-18T05:17:31;5.30;99.90
37268;DHT22;23154;52.542;13.362;2023-02-18T05:19:57;5.40;99.90
37268;DHT22;23154;52.542;13.362;2023-02-18T05:22:22;5.40;99.90
37268;DHT22;23154;52.542;13.362;2023-02-18T05:24:48;5.40;99.90
37268;DHT22;23154;52.542;13.362;2023-02-18T05:27:13;5.60;99.90
37268;DHT22;23154;52.542;13.362;2023-02-18T05:29:39;5.60;99.90
37268;DHT22;23154;52.542;13.362;2023-02-18T05:32:04;5.60;99.90
37268;DHT22;23154;52.542;13.362;2023-02-18T05:34:30;5.70;99.90
37268;DHT22;23154;52.542;13.362;2023-02-18T05:36:55;5.70;99.90
37268;DHT22;23154;52.542;13.362;2023-02-18T05:39:21;5.80;99.90
37268;DHT22;23154;52.542;13.362;2023-02-18T05:41:46;5.80;99.90
37268;DHT22;23154;52.542;13.362;2023-02-18T05:44:12;5.80;99.90
37268;DHT22;23154;52.542;13.362;2023-02-18T05:47:00;5.90;99.90
37268;DHT22;23154;52.542;13.362;2023-02-18T05:49:27;5.80;99.90
37268;DHT22;23154;52.542;13.362;2023-02-18T05:51:52;5.90;99.90
37268;DHT22;23154;52.542;13.362;2023-02-18T05:54:18;5.90;99.90
37268;DHT22;23154;52.542;13.362;2023-02-18T05:56:44;5.90;99.90
37268;DHT22;23154;52.542;13.362;2023-02-18T05:59:09;5.90;99.90
37268;DHT22;23154;52.542;13.362;2023-02-18T06:01:35;5.90;99.90
37268;DHT22;23154;52.542;13.362;2023-02-18T06:04:01;5.90;99.90
37268;DHT22;23154;52.542;13.362;2023-02-18T06:06:26;6.00;99.90
37268;DHT22;23154;52.542;13.362;2023-02-18T06:08:52;6.00;99.90
37268;DHT22;23154;52.542;13.362;2023-02-18T06:11:17;6.00;99.90
37268;DHT22;23154;52.542;13.362;2023-02-18T06:13:43;6.00;99.90
37268;DHT22;23154;52.542;13.362;2023-02-18T06:16:08;6.10;99.90
37268;DHT22;23154;52.542;13.362;2023-02-18T06:18:34;6.10;99.90
37268;DHT22;23154;52.542;13.362;2023-02-18T06:20:59;6.10;99.90
37268;DHT22;23154;52.542;13.362;2023-02-18T06:23:25;6.10;99.90
37268;DHT22;23154;52.542;13.362;2023-02-18T06:25:50;6.10;99.90
37268;DHT22;23154;52.542;13.362;2023-02-18T06:28:16;6.20;99.90
37268;DHT22;23154;52.542;13.362;2023-02-18T06:30:43;6.20;99.90
37268;DHT22;23154;52.542;13.362;2023-02-18T06:33:08;6.20;99.90
37268;DHT22;23154;52.542;13.362;2023-02-18T06:35:34;6.20;99.90
37268;DHT22;23154;52.542;13.362;2023-02-18T06:37:59;6.20;99.90
37268;DHT22;23154;52.542;13.362;2023-02-18T06:40:25;6.30;99.90
37268;DHT22;23154;52.542;13.362;2023-02-18T06:42:50;6.30;99.90
37268;DHT22;23154;52.542;13.362;2023-02-18T06:45:16;6.30;99.90
37268;DHT22;23154;52.542;13.362;2023-02-18T06:47:42;6.40;99.90
37268;DHT22;23154;52.542;13.362;2023-02-18T06:50:07;6.30;99.90
37268;DHT22;23154;52.542;13.362;2023-02-18T06:52:33;6.40;99.90
37268;DHT22;23154;52.542;13.362;2023-02-18T06:54:59;6.40;99.90
37268;DHT22;23154;52.542;13.362;2023-02-18T06:57:25;6.40;99.90
37268;DHT22;23154;52.542;13.362;2023-02-18T06:59:50;6.40;99.90
37268;DHT22;23154;52.542;13.362;2023-02-18T07:02:16;6.50;99.90
37268;DHT22;23154;52.542;13.362;2023-02-18T07:04:41;6.50;99.90
37268;DHT22;23154;52.542;13.362;2023-02-18T07:07:07;6.50;99.90
37268;DHT22;23154;52.542;13.362;2023-02-18T07:09:32;6.60;99.90
37268;DHT22;23154;52.542;13.362;2023-02-18T07:11:58;6.60;99.90
37268;DHT22;23154;52.542;13.362;2023-02-18T07:14:23;6.50;99.90
37268;DHT22;23154;52.542;13.362;2023-02-18T07:16:49;6.60;99.90
37268;DHT22;23154;52.542;13.362;2023-02-18T07:19:15;6.60;99.90
37268;DHT22;23154;52.542;13.362;2023-02-18T07:21:41;6.60;99.90
37268;DHT22;23154;52.542;13.362;2023-02-18T07:24:06;6.70;99.90
37268;DHT22;23154;52.542;13.362;2023-02-18T07:26:32;6.70;99.90
37268;DHT22;23154;52.542;13.362;2023-02-18T07:28:57;6.70;99.90
37268;DHT22;23154;52.542;13.362;2023-02-18T07:31:23;6.70;99.90
37268;DHT22;23154;52.542;13.362;2023-02-18T07:33:49;6.80;99.90
37268;DHT22;23154;52.542;13.362;2023-02-18T07:36:14;6.80;99.90
37268;DHT22;23154;52.542;13.362;2023-02-18T07:38:39;6.80;99.90
37268;DHT22;23154;52.542;13.362;2023-02-18T07:41:05;6.80;99.90
37268;DHT22;23154;52.542;13.362;2023-02-18T07:43:31;6.90;99.90
37268;DHT22;23154;52.542;13.362;2023-02-18T07:45:56;6.90;99.90
37268;DHT22;23154;52.542;13.362;2023-02-18T07:48:22;7.00;99.90
37268;DHT22;23154;52.542;13.362;2023-02-18T07:50:47;7.00;99.90
37268;DHT22;23154;52.542;13.362;2023-02-18T07:53:13;7.10;99.90
37268;DHT22;23154;52.542;13.362;2023-02-18T07:55:40;7.10;99.90
37268;DHT22;23154;52.542;13.362;2023-02-18T07:58:19;7.10;99.90
37268;DHT22;23154;52.542;13.362;2023-02-18T08:00:45;7.10;99.90
37268;DHT22;23154;52.542;13.362;2023-02-18T08:03:15;7.00;99.90
37268;DHT22;23154;52.542;13.362;2023-02-18T08:05:41;6.80;99.90
37268;DHT22;23154;52.542;13.362;2023-02-18T08:08:06;6.80;99.90
37268;DHT22;23154;52.542;13.362;2023-02-18T08:10:32;6.80;99.90
37268;DHT22;23154;52.542;13.362;2023-02-18T08:12:57;6.90;99.90
37268;DHT22;23154;52.542;13.362;2023-02-18T08:15:23;6.90;99.90
37268;DHT22;23154;52.542;13.362;2023-02-18T08:17:48;6.90;99.90
37268;DHT22;23154;52.542;13.362;2023-02-18T08:20:14;6.90;99.90
37268;DHT22;23154;52.542;13.362;2023-02-18T08:22:39;6.80;99.90
37268;DHT22;23154;52.542;13.362;2023-02-18T08:25:05;6.80;99.90
37268;DHT22;23154;52.542;13.362;2023-02-18T08:27:31;6.90;99.90
37268;DHT22;23154;52.542;13.362;2023-02-18T08:29:56;6.80;99.90
37268;DHT22;23154;52.542;13.362;2023-02-18T08:32:22;6.80;99.90
37268;DHT22;23154;52.542;13.362;2023-02-18T08:34:50;6.70;99.90
37268;DHT22;23154;52.542;13.362;2023-02-18T08:37:16;6.70;99.90
37268;DHT22;23154;52.542;13.362;2023-02-18T08:39:41;6.60;99.90
37268;DHT22;23154;52.542;13.362;2023-02-18T08:42:07;6.60;99.90
37268;DHT22;23154;52.542;13.362;2023-02-18T08:44:32;6.60;99.90
37268;DHT22;23154;52.542;13.362;2023-02-18T08:46:58;6.60;99.90
37268;DHT22;23154;52.542;13.362;2023-02-18T08:49:23;6.60;99.90
37268;DHT22;23154;52.542;13.362;2023-02-18T08:51:49;6.60;99.90
37268;DHT22;23154;52.542;13.362;2023-02-18T08:54:15;6.50;99.90
37268;DHT22;23154;52.542;13.362;2023-02-18T08:56:40;6.40;99.90
37268;DHT22;23154;52.542;13.362;2023-02-18T08:59:06;6.30;99.90
37268;DHT22;23154;52.542;13.362;2023-02-18T09:01:31;6.30;99.90
37268;DHT22;23154;52.542;13.362;2023-02-18T09:03:57;6.30;99.90
37268;DHT22;23154;52.542;13.362;2023-02-18T09:06:22;6.20;99.90
37268;DHT22;23154;52.542;13.362;2023-02-18T09:08:48;6.20;99.90
37268;DHT22;23154;52.542;13.362;2023-02-18T09:11:14;6.20;99.90
37268;DHT22;23154;52.542;13.362;2023-02-18T09:13:40;6.20;99.90
37268;DHT22;23154;52.542;13.362;2023-02-18T09:16:06;6.20;99.90
37268;DHT22;23154;52.542;13.362;2023-02-18T09:18:33;6.20;99.90
37268;DHT22;23154;52.542;13.362;2023-02-18T09:21:00;6.20;99.90
37268;DHT22;23154;52.542;13.362;2023-02-18T09:23:26;6.20;99.90
37268;DHT22;23154;52.542;13.362;2023-02-18T09:25:52;6.30;99.90
37268;DHT22;23154;52.542;13.362;2023-02-18T09:28:18;6.30;99.90
37268;DHT22;23154;52.542;13.362;2023-02-18T09:30:44;6.30;99.90
37268;DHT22;23154;52.542;13.362;2023-02-18T09:33:09;6.30;99.90
37268;DHT22;23154;52.542;13.362;2023-02-18T09:35:41;6.30;99.90
37268;DHT22;23154;52.542;13.362;2023-02-18T09:38:08;6.40;99.90
37268;DHT22;23154;52.542;13.362;2023-02-18T09:40:34;6.40;99.90
37268;DHT22;23154;52.542;13.362;2023-02-18T09:43:01;6.40;99.90
37268;DHT22;23154;52.542;13.362;2023-02-18T09:45:27;6.30;99.90
37268;DHT22;23154;52.542;13.362;2023-02-18T09:47:53;6.40;99.90
37268;DHT22;23154;52.542;13.362;2023-02-18T09:50:20;6.60;99.90
37268;DHT22;23154;52.542;13.362;2023-02-18T09:52:47;6.60;99.90
37268;DHT22;23154;52.542;13.362;2023-02-18T09:55:17;6.50;99.90
37268;DHT22;23154;52.542;13.362;2023-02-18T09:57:44;6.60;99.90
37268;DHT22;23154;52.542;13.362;2023-02-18T10:00:14;6.60;99.90
37268;DHT22;23154;52.542;13.362;2023-02-18T10:02:43;6.40;99.90
37268;DHT22;23154;52.542;13.362;2023-02-18T10:05:12;6.40;99.90
37268;DHT22;23154;52.542;13.362;2023-02-18T10:07:39;6.40;99.90
37268;DHT22;23154;52.542;13.362;2023-02-18T10:10:14;6.40;99.90
37268;DHT22;23154;52.542;13.362;2023-02-18T10:12:40;6.40;99.90
37268;DHT22;23154;52.542;13.362;2023-02-18T10:15:09;6.30;99.90
37268;DHT22;23154;52.542;13.362;2023-02-18T10:17:41;6.30;99.90
37268;DHT22;23154;52.542;13.362;2023-02-18T10:20:07;6.30;99.90
37268;DHT22;23154;52.542;13.362;2023-02-18T10:22:32;6.30;99.90
37268;DHT22;23154;52.542;13.362;2023-02-18T10:24:58;6.30;99.90
37268;DHT22;23154;52.542;13.362;2023-02-18T10:29:54;6.40;99.90
37268;DHT22;23154;52.542;13.362;2023-02-18T10:32:42;6.30;99.90
37268;DHT22;23154;52.542;13.362;2023-02-18T10:35:16;6.40;99.90
37268;DHT22;23154;52.542;13.362;2023-02-18T10:40:34;6.50;99.90
37268;DHT22;23154;52.542;13.362;2023-02-18T10:46:19;6.50;99.90
37268;DHT22;23154;52.542;13.362;2023-02-18T10:48:39;6.60;99.90
37268;DHT22;23154;52.542;13.362;2023-02-18T10:51:11;6.50;99.90
37268;DHT22;23154;52.542;13.362;2023-02-18T10:53:39;6.40;99.90
37268;DHT22;23154;52.542;13.362;2023-02-18T10:56:06;6.50;99.90
37268;DHT22;23154;52.542;13.362;2023-02-18T10:58:36;6.50;99.90
37268;DHT22;23154;52.542;13.362;2023-02-18T11:01:11;6.50;99.90
37268;DHT22;23154;52.542;13.362;2023-02-18T11:03:39;6.40;99.90
37268;DHT22;23154;52.542;13.362;2023-02-18T11:06:05;6.50;99.90
37268;DHT22;23154;52.542;13.362;2023-02-18T11:08:36;6.60;99.90
37268;DHT22;23154;52.542;13.362;2023-02-18T11:11:08;6.50;99.90
37268;DHT22;23154;52.542;13.362;2023-02-18T11:13:36;6.60;99.90
37268;DHT22;23154;52.542;13.362;2023-02-18T11:16:03;6.70;99.90
37268;DHT22;23154;52.542;13.362;2023-02-18T11:20:56;6.70;99.90
37268;DHT22;23154;52.542;13.362;2023-02-18T11:23:22;6.70;99.90
37268;DHT22;23154;52.542;13.362;2023-02-18T11:26:02;6.60;99.90
37268;DHT22;23154;52.542;13.362;2023-02-18T11:30:57;6.60;99.90
37268;DHT22;23154;52.542;13.362;2023-02-18T11:33:33;6.60;99.90
37268;DHT22;23154;52.542;13.362;2023-02-18T11:36:02;6.60;99.90
37268;DHT22;23154;52.542;13.362;2023-02-18T11:38:51;6.60;99.90
37268;DHT22;23154;52.542;13.362;2023-02-18T11:41:16;6.50;99.90
37268;DHT22;23154;52.542;13.362;2023-02-18T11:43:42;6.60;99.90
37268;DHT22;23154;52.542;13.362;2023-02-18T11:46:17;6.60;99.90
37268;DHT22;23154;52.542;13.362;2023-02-18T11:48:43;6.70;99.90
37268;DHT22;23154;52.542;13.362;2023-02-18T11:51:17;6.70;99.90
37268;DHT22;23154;52.542;13.362;2023-02-18T11:54:02;6.70;99.90
37268;DHT22;23154;52.542;13.362;2023-02-18T11:56:29;6.70;99.90
37268;DHT22;23154;52.542;13.362;2023-02-18T11:58:55;6.80;99.90
37268;DHT22;23154;52.542;13.362;2023-02-18T12:06:32;7.00;99.90
37268;DHT22;23154;52.542;13.362;2023-02-18T12:09:05;7.00;99.90
37268;DHT22;23154;52.542;13.362;2023-02-18T12:11:34;7.20;99.90
37268;DHT22;23154;52.542;13.362;2023-02-18T12:14:01;7.20;99.90
37268;DHT22;23154;52.542;13.362;2023-02-18T12:19:05;7.30;99.90
37268;DHT22;23154;52.542;13.362;2023-02-18T12:24:08;7.60;99.90
37268;DHT22;23154;52.542;13.362;2023-02-18T12:26:57;7.70;99.90
37268;DHT22;23154;52.542;13.362;2023-02-18T12:32:51;7.90;99.90
37268;DHT22;23154;52.542;13.362;2023-02-18T12:42:28;8.30;99.90
37268;DHT22;23154;52.542;13.362;2023-02-18T12:45:05;8.50;99.90
37268;DHT22;23154;52.542;13.362;2023-02-18T12:47:54;8.60;99.90
37268;DHT22;23154;52.542;13.362;2023-02-18T12:53:27;8.90;99.90
37268;DHT22;23154;52.542;13.362;2023-02-18T13:08:56;9.60;99.90
37268;DHT22;23154;52.542;13.362;2023-02-18T13:14:24;9.70;99.90
37268;DHT22;23154;52.542;13.362;2023-02-18T13:16:52;9.80;99.90
37268;DHT22;23154;52.542;13.362;2023-02-18T13:19:30;9.90;99.90
37268;DHT22;23154;52.542;13.362;2023-02-18T13:22:03;9.90;99.90
37268;DHT22;23154;52.542;13.362;2023-02-18T13:26:57;9.90;99.90
37268;DHT22;23154;52.542;13.362;2023-02-18T13:29:33;9.90;99.90
37268;DHT22;23154;52.542;13.362;2023-02-18T13:32:04;9.80;99.90
37268;DHT22;23154;52.542;13.362;2023-02-18T13:39:32;9.70;99.90
37268;DHT22;23154;52.542;13.362;2023-02-18T13:42:21;9.80;99.90
37268;DHT22;23154;52.542;13.362;2023-02-18T13:50:22;9.90;99.90
37268;DHT22;23154;52.542;13.362;2023-02-18T13:55:17;9.90;99.90
37268;DHT22;23154;52.542;13.362;2023-02-18T13:57:44;9.80;99.90
37268;DHT22;23154;52.542;13.362;2023-02-18T14:00:20;9.80;99.90
37268;DHT22;23154;52.542;13.362;2023-02-18T14:02:56;9.80;99.90
37268;DHT22;23154;52.542;13.362;2023-02-18T14:05:23;9.80;99.90
37268;DHT22;23154;52.542;13.362;2023-02-18T14:07:50;9.80;99.90
37268;DHT22;23154;52.542;13.362;2023-02-18T14:12:42;9.80;99.90
37268;DHT22;23154;52.542;13.362;2023-02-18T14:17:47;9.80;99.90
37268;DHT22;23154;52.542;13.362;2023-02-18T14:20:23;9.80;99.90
37268;DHT22;23154;52.542;13.362;2023-02-18T14:22:51;9.80;99.90
37268;DHT22;23154;52.542;13.362;2023-02-18T14:27:46;9.80;99.90
37268;DHT22;23154;52.542;13.362;2023-02-18T14:32:45;9.80;99.90
37268;DHT22;23154;52.542;13.362;2023-02-18T14:40:42;9.80;99.90
37268;DHT22;23154;52.542;13.362;2023-02-18T14:50:54;9.80;99.90
37268;DHT22;23154;52.542;13.362;2023-02-18T14:53:21;9.80;99.90
37268;DHT22;23154;52.542;13.362;2023-02-18T14:55:48;9.80;99.90
37268;DHT22;23154;52.542;13.362;2023-02-18T15:00:43;9.80;99.90
37268;DHT22;23154;52.542;13.362;2023-02-18T15:03:12;9.70;99.90
37268;DHT22;23154;52.542;13.362;2023-02-18T15:05:38;9.60;99.90
37268;DHT22;23154;52.542;13.362;2023-02-18T15:08:05;9.60;99.90
37268;DHT22;23154;52.542;13.362;2023-02-18T15:10:39;9.60;99.90
37268;DHT22;23154;52.542;13.362;2023-02-18T15:13:07;9.60;99.90
37268;DHT22;23154;52.542;13.362;2023-02-18T15:15:33;9.60;99.90
37268;DHT22;23154;52.542;13.362;2023-02-18T15:18:00;9.60;99.90
37268;DHT22;23154;52.542;13.362;2023-02-18T15:20:27;9.60;99.90
37268;DHT22;23154;52.542;13.362;2023-02-18T15:22:52;9.60;99.90
37268;DHT22;23154;52.542;13.362;2023-02-18T15:25:19;9.70;99.90
37268;DHT22;23154;52.542;13.362;2023-02-18T15:27:44;9.70;99.90
37268;DHT22;23154;52.542;13.362;2023-02-18T15:33:08;9.70;99.90
37268;DHT22;23154;52.542;13.362;2023-02-18T15:35:35;9.80;99.90
37268;DHT22;23154;52.542;13.362;2023-02-18T15:38:05;9.80;99.90
37268;DHT22;23154;52.542;13.362;2023-02-18T15:40:31;9.80;99.90
37268;DHT22;23154;52.542;13.362;2023-02-18T15:42:59;9.80;99.90
37268;DHT22;23154;52.542;13.362;2023-02-18T15:45:29;9.90;99.90
37268;DHT22;23154;52.542;13.362;2023-02-18T15:47:56;9.90;99.90
37268;DHT22;23154;52.542;13.362;2023-02-18T15:50:26;9.90;99.90
37268;DHT22;23154;52.542;13.362;2023-02-18T15:52:53;9.90;99.90
37268;DHT22;23154;52.542;13.362;2023-02-18T15:55:40;9.80;99.90
37268;DHT22;23154;52.542;13.362;2023-02-18T15:58:07;9.80;99.90
37268;DHT22;23154;52.542;13.362;2023-02-18T16:00:40;9.70;99.90
37268;DHT22;23154;52.542;13.362;2023-02-18T16:03:14;9.80;99.90
37268;DHT22;23154;52.542;13.362;2023-02-18T16:05:40;9.70;99.90
37268;DHT22;23154;52.542;13.362;2023-02-18T16:08:27;9.70;99.90
37268;DHT22;23154;52.542;13.362;2023-02-18T16:10:56;9.70;99.90
37268;DHT22;23154;52.542;13.362;2023-02-18T16:13:24;9.70;99.90
37268;DHT22;23154;52.542;13.362;2023-02-18T16:15:50;9.60;99.90
37268;DHT22;23154;52.542;13.362;2023-02-18T16:18:24;9.60;99.90
37268;DHT22;23154;52.542;13.362;2023-02-18T16:20:55;9.70;99.90
37268;DHT22;23154;52.542;13.362;2023-02-18T16:23:24;9.60;99.90
37268;DHT22;23154;52.542;13.362;2023-02-18T16:25:50;9.60;99.90
37268;DHT22;23154;52.542;13.362;2023-02-18T16:28:30;9.60;99.90
37268;DHT22;23154;52.542;13.362;2023-02-18T16:30:56;9.60;99.90
37268;DHT22;23154;52.542;13.362;2023-02-18T16:33:22;9.60;99.90
37268;DHT22;23154;52.542;13.362;2023-02-18T16:35:47;9.50;99.90
37268;DHT22;23154;52.542;13.362;2023-02-18T16:38:17;9.50;99.90
37268;DHT22;23154;52.542;13.362;2023-02-18T16:40:43;9.50;99.90
37268;DHT22;23154;52.542;13.362;2023-02-18T16:43:10;9.50;99.90
37268;DHT22;23154;52.542;13.362;2023-02-18T16:45:40;9.30;99.90
37268;DHT22;23154;52.542;13.362;2023-02-18T16:48:06;9.10;99.90
37268;DHT22;23154;52.542;13.362;2023-02-18T16:50:32;8.80;99.90
37268;DHT22;23154;52.542;13.362;2023-02-18T16:52:58;8.60;99.90
37268;DHT22;23154;52.542;13.362;2023-02-18T16:55:25;8.40;99.90
37268;DHT22;23154;52.542;13.362;2023-02-18T16:57:51;8.30;99.90
37268;DHT22;23154;52.542;13.362;2023-02-18T17:00:17;8.30;99.90
37268;DHT22;23154;52.542;13.362;2023-02-18T17:02:43;8.20;99.90
37268;DHT22;23154;52.542;13.362;2023-02-18T17:05:15;8.10;99.90
37268;DHT22;23154;52.542;13.362;2023-02-18T17:07:40;8.10;99.90
37268;DHT22;23154;52.542;13.362;2023-02-18T17:10:06;8.00;99.90
37268;DHT22;23154;52.542;13.362;2023-02-18T17:12:31;7.90;99.90
37268;DHT22;23154;52.542;13.362;2023-02-18T17:14:57;7.80;99.90
37268;DHT22;23154;52.542;13.362;2023-02-18T17:17:22;7.70;99.90
37268;DHT22;23154;52.542;13.362;2023-02-18T17:19:48;7.60;99.90
37268;DHT22;23154;52.542;13.362;2023-02-18T17:22:13;7.60;99.90
37268;DHT22;23154;52.542;13.362;2023-02-18T17:24:39;7.50;99.90
37268;DHT22;23154;52.542;13.362;2023-02-18T17:27:05;7.50;99.90
37268;DHT22;23154;52.542;13.362;2023-02-18T17:29:30;7.50;99.90
37268;DHT22;23154;52.542;13.362;2023-02-18T17:31:56;7.50;99.90
37268;DHT22;23154;52.542;13.362;2023-02-18T17:34:26;7.50;99.90
37268;DHT22;23154;52.542;13.362;2023-02-18T17:36:52;7.40;99.90
37268;DHT22;23154;52.542;13.362;2023-02-18T17:39:17;7.30;99.90
37268;DHT22;23154;52.542;13.362;2023-02-18T17:41:43;7.30;99.90
37268;DHT22;23154;52.542;13.362;2023-02-18T17:44:16;7.20;99.90
37268;DHT22;23154;52.542;13.362;2023-02-18T17:46:42;7.20;99.90
37268;DHT22;23154;52.542;13.362;2023-02-18T17:49:08;7.10;99.90
37268;DHT22;23154;52.542;13.362;2023-02-18T17:51:33;7.10;99.90
37268;DHT22;23154;52.542;13.362;2023-02-18T17:54:01;7.10;99.90